South Fork, CO (81154)

11:15 AM MDT on September 02, 2015 (GMT -0600)
KCOSOUTH3 | | Change Station
CLOSE
Current Station
Personal Weather Station
Location: South Fork, CO
Elevation: 8325 ft
Nearby Weather Stations

Elev 8325 ft 37.73 °N, 106.72 °W | Updated 27 seconds ago

Clear
Clear
71.9 °F
Feels Like 77 °F
N
2.0
Wind Variable Wind from WSW
Gusts 3.0 mph

Today
High -- | Low -- °F
--% Chance of Precip.
Yesterday
High -- | Low -- °F
Precip. -- in
6:37 AM 7:34 PM
Waning Gibbous, 79% visible
Pressure 30.38 in
Visibility 10.0 miles
Clouds Clear
Heat Index 77 °F
Dew Point 46 °F
Humidity 39%
Rainfall 0.02 in
Snow Depth Not available.
UV 8 out of 12
Pollen 10.80 out of 12
Air Quality Not available.
Flu Activity Not available.
METAR KPSO 021655Z AUTO 22003KT 10SM CLR 21/04 A3038 RMK AO2 T02120043
Pressure 30.38 in
Visibility 10.0 miles
Clouds Clear
Heat Index 77 °F
Dew Point 46 °F
Humidity 39%
Rainfall 0.02 in
Snow Depth Not available.
UV 8 out of 12
Pollen 10.80 out of 12
Air Quality Not available.
Flu Activity Not available.
METAR KPSO 021655Z AUTO 22003KT 10SM CLR 21/04 A3038 RMK AO2 T02120043

10-Day Weather Forecast

×

Almanac

Astronomy

Sep. 02, 2015 Rise Set
Actual Time
Civil Twilight
Nautical Twilight
Astronomical Twilight
Moon
Length of Visible Light
Length of Day
Tomorrow will be .
, % of the Moon is Illuminated

Today's Extremes

State Highs State Lows

Community

WunderPhotos

Upload Photos

1,851,785 photos uploaded!

WunderBlogs® & News

Nearby

Air Quality

  Air Quality AQ Index Pollutant
Not available.

Snow Depth

Station Depth Elevation

Earthquake Activity

City Distance Mag. Time & Date
Minimum magnitude displayed is 2.5.

Coastal Water Temperatures

Place Temperature

Stations

Nearby Weather Stations

Station Location Temp. Windchill Dew Point Humidity Wind Precip. Elev Updated Type